Time;durP1;ratioP1;P1;durP2;ratioP2;P2;SDS_P1;SDS_P2;PMS_P1;PMS_P2;Temp;Humidity;BMP_temperature;BMP_pressure;BME280_temperature;BME280_humidity;BME280_pressure;Samples;Min_cycle;Max_cycle;Signal;HPM_P1;HPM_P2
2022/03/17 00:00:20;;;;;;;31.15;22.38;;;;;;;9.93;74.07;101822.56;5053752;28;20025;-51
2022/03/17 00:02:45;;;;;;;30.85;23.45;;;;;;;9.91;74.02;101816.50;5053519;28;20048;-54
2022/03/17 00:05:12;;;;;;;31.88;23.13;;;;;;;9.86;74.10;101819.28;5054266;28;20493;-54
2022/03/17 00:07:40;;;;;;;31.67;22.30;;;;;;;9.88;73.95;101811.50;5054439;28;20040;-55
2022/03/17 00:10:07;;;;;;;31.92;23.77;;;;;;;9.94;74.06;101815.09;5053970;28;20024;-55
2022/03/17 00:12:33;;;;;;;30.40;23.00;;;;;;;9.95;73.60;101828.66;5054313;28;20183;-54
2022/03/17 00:14:59;;;;;;;31.45;22.65;;;;;;;9.93;73.94;101828.09;5053663;28;20059;-53
2022/03/17 00:17:25;;;;;;;31.85;22.08;;;;;;;9.91;74.08;101823.97;5054249;28;20263;-54
2022/03/17 00:19:50;;;;;;;32.92;23.42;;;;;;;9.89;74.22;101818.69;5054137;28;20120;-54
2022/03/17 00:22:16;;;;;;;31.98;23.02;;;;;;;9.86;74.11;101818.44;5054307;28;20599;-55
2022/03/17 00:24:43;;;;;;;31.60;22.08;;;;;;;9.85;74.09;101812.09;5054020;28;20044;-53
2022/03/17 00:27:09;;;;;;;30.58;21.42;;;;;;;9.84;74.39;101816.75;5053885;28;20108;-55
2022/03/17 00:29:35;;;;;;;32.92;23.00;;;;;;;9.87;74.17;101818.13;5053167;28;20021;-52
2022/03/17 00:32:01;;;;;;;31.73;22.30;;;;;;;9.85;74.34;101825.91;5053718;28;20104;-54
2022/03/17 00:34:26;;;;;;;32.53;22.35;;;;;;;9.86;75.03;101810.13;5053442;28;20342;-53
2022/03/17 00:36:51;;;;;;;32.35;22.55;;;;;;;9.84;74.24;101804.91;5053823;28;20028;-52
2022/03/17 00:39:17;;;;;;;31.92;23.60;;;;;;;9.82;74.38;101813.44;5053867;28;20036;-54
2022/03/17 00:41:43;;;;;;;31.40;22.83;;;;;;;9.79;74.36;101808.50;5053888;28;20532;-54
2022/03/17 00:44:09;;;;;;;31.35;23.63;;;;;;;9.76;74.81;101819.28;5053389;28;20540;-54
2022/03/17 00:46:36;;;;;;;31.17;22.33;;;;;;;9.75;74.88;101815.66;5053524;28;20108;-53
2022/03/17 00:49:01;;;;;;;32.75;22.80;;;;;;;9.77;74.97;101824.50;5053678;28;20056;-54
2022/03/17 00:51:26;;;;;;;31.80;21.52;;;;;;;9.79;74.53;101822.31;5053201;28;20036;-55
2022/03/17 00:53:52;;;;;;;33.25;22.90;;;;;;;9.77;74.79;101818.16;5052900;28;20029;-53
2022/03/17 00:56:17;;;;;;;32.40;22.10;;;;;;;9.74;74.71;101825.06;5053525;28;20033;-53
2022/03/17 00:58:45;;;;;;;32.13;21.92;;;;;;;9.72;74.75;101829.22;5053407;28;20039;-53
2022/03/17 01:01:13;;;;;;;31.20;21.25;;;;;;;9.72;74.99;101831.97;5053102;28;20021;-54
2022/03/17 01:03:38;;;;;;;32.80;22.17;;;;;;;9.67;75.40;101827.28;5053173;28;20528;-52
2022/03/17 01:06:04;;;;;;;33.13;21.95;;;;;;;9.62;75.76;101825.34;5053271;28;20060;-54
2022/03/17 01:08:29;;;;;;;31.65;22.60;;;;;;;9.63;75.72;101827.00;5052919;28;20033;-52
2022/03/17 01:10:54;;;;;;;32.13;22.10;;;;;;;9.61;75.72;101825.63;5053228;28;20041;-54
2022/03/17 01:13:20;;;;;;;31.75;22.70;;;;;;;9.60;75.92;101827.53;5053362;28;20127;-52
2022/03/17 01:15:45;;;;;;;31.83;22.13;;;;;;;9.61;75.91;101826.44;5053514;28;20527;-53
2022/03/17 01:18:10;;;;;;;33.33;23.98;;;;;;;9.60;76.21;101826.72;5052765;28;20037;-52
2022/03/17 01:20:35;;;;;;;32.72;22.80;;;;;;;9.60;76.17;101826.72;5053525;28;20477;-52
2022/03/17 01:23:01;;;;;;;34.42;23.60;;;;;;;9.58;76.35;101829.78;5052786;28;20052;-53
2022/03/17 01:25:27;;;;;;;31.42;22.67;;;;;;;9.58;76.54;101817.88;5052333;28;20021;-53
2022/03/17 01:27:52;;;;;;;32.45;22.23;;;;;;;9.61;76.26;101820.09;5052840;28;20086;-54
2022/03/17 01:30:17;;;;;;;33.17;23.00;;;;;;;9.61;76.13;101815.38;5053478;28;20473;-52
2022/03/17 01:32:43;;;;;;;31.70;22.90;;;;;;;9.62;76.61;101821.75;5052205;28;20033;-53
2022/03/17 01:35:09;;;;;;;35.72;23.38;;;;;;;9.61;76.95;101809.06;5052703;28;20028;-54
2022/03/17 01:37:35;;;;;;;34.08;22.90;;;;;;;9.61;76.53;101803.53;5052984;28;20500;-54
2022/03/17 01:40:00;;;;;;;33.95;23.25;;;;;;;9.62;76.49;101810.72;5052829;28;20021;-54
2022/03/17 01:42:25;;;;;;;33.15;23.17;;;;;;;9.71;76.22;101825.63;5052403;28;20025;-52
2022/03/17 01:44:51;;;;;;;34.35;22.52;;;;;;;9.70;76.64;101831.41;5052801;28;20025;-53
2022/03/17 01:47:28;;;;;;;33.08;23.30;;;;;;;9.68;76.56;101826.97;5051942;28;20032;-54
2022/03/17 01:49:55;;;;;;;31.58;22.60;;;;;;;9.62;76.69;101814.28;5051760;28;20259;-51
2022/03/17 01:52:20;;;;;;;33.40;23.10;;;;;;;9.67;76.94;101813.47;5052698;28;20036;-53
2022/03/17 01:54:46;;;;;;;34.08;22.88;;;;;;;9.67;77.00;101821.75;5052643;28;20021;-55
2022/03/17 01:57:11;;;;;;;33.95;23.35;;;;;;;9.66;76.97;101817.31;5052021;28;20025;-55
2022/03/17 01:59:38;;;;;;;32.92;22.30;;;;;;;9.67;77.41;101813.47;5052149;28;20033;-56
2022/03/17 02:02:05;;;;;;;36.83;22.67;;;;;;;9.61;77.26;101812.63;5051281;28;20085;-54
2022/03/17 02:04:30;;;;;;;31.20;21.60;;;;;;;9.67;77.97;101816.22;5052154;28;20024;-55
2022/03/17 02:06:56;;;;;;;34.65;23.27;;;;;;;9.70;78.09;101817.59;5052542;28;20017;-55
2022/03/17 02:09:26;;;;;;;33.97;22.90;;;;;;;9.70;78.35;101818.44;5051965;28;20484;-54
2022/03/17 02:14:50;;;;;;;33.65;23.10;;;;;;;9.73;78.61;101825.34;5053006;28;20512;-52
2022/03/17 02:17:16;;;;;;;33.60;23.30;;;;;;;9.74;78.55;101819.53;5052689;28;20118;-53
2022/03/17 02:19:41;;;;;;;33.65;22.30;;;;;;;9.76;78.66;101819.28;5051969;28;20033;-54
2022/03/17 02:22:11;;;;;;;34.53;23.30;;;;;;;9.71;78.66;101822.03;5052467;28;20108;-54
2022/03/17 02:27:20;;;;;;;34.13;23.00;;;;;;;9.76;79.24;101833.91;5052522;28;20064;-53
2022/03/17 02:29:46;;;;;;;34.47;23.33;;;;;;;9.79;78.83;101838.88;5051595;28;20472;-54
2022/03/17 02:32:11;;;;;;;33.35;22.65;;;;;;;9.79;79.12;101827.00;5050653;28;20132;-52
2022/03/17 02:34:38;;;;;;;33.13;23.60;;;;;;;9.80;79.71;101835.03;5051751;28;20036;-54
2022/03/17 02:37:03;;;;;;;35.45;23.73;;;;;;;9.83;79.59;101834.44;5052310;28;20087;-54
2022/03/17 02:39:29;;;;;;;34.63;22.65;;;;;;;9.86;79.90;101841.38;5052612;28;20473;-54
2022/03/17 02:41:55;;;;;;;34.72;23.90;;;;;;;9.90;79.81;101841.66;5051394;28;20021;-53
2022/03/17 02:44:21;;;;;;;35.38;23.38;;;;;;;9.92;80.09;101844.97;5051836;28;20051;-54
2022/03/17 02:46:46;;;;;;;34.67;23.20;;;;;;;9.95;80.07;101845.25;5051809;28;20029;-55
2022/03/17 02:49:15;;;;;;;34.33;23.27;;;;;;;9.98;79.73;101841.91;5050693;28;20047;-53
2022/03/17 02:51:41;;;;;;;34.67;23.33;;;;;;;9.96;80.38;101855.19;5056717;28;20105;-53
2022/03/17 02:54:06;;;;;;;33.05;22.35;;;;;;;9.94;80.30;101849.13;5056730;28;20059;-52
2022/03/17 02:56:33;;;;;;;33.65;22.88;;;;;;;9.98;80.79;101860.44;5055449;28;20095;-53
2022/03/17 02:58:58;;;;;;;32.15;22.42;;;;;;;10.01;81.14;101854.38;5055075;28;20029;-55
2022/03/17 03:01:23;;;;;;;35.67;23.15;;;;;;;10.06;81.69;101865.41;5055315;28;20382;-54
2022/03/17 03:03:49;;;;;;;35.58;23.92;;;;;;;10.10;82.03;101872.06;5054149;28;20461;-52
2022/03/17 03:06:15;;;;;;;37.95;24.60;;;;;;;10.17;82.30;101868.16;5054883;28;20113;-54
2022/03/17 03:08:40;;;;;;;39.50;23.80;;;;;;;10.18;82.80;101878.13;5054478;28;20083;-53
2022/03/17 03:11:06;;;;;;;36.30;24.45;;;;;;;10.23;83.38;101880.88;5057909;22;20103;-59
2022/03/17 03:13:31;;;;;;;36.42;25.02;;;;;;;10.22;83.85;101891.13;5034430;28;20040;-58
2022/03/17 03:15:56;;;;;;;36.53;24.13;;;;;;;10.16;84.72;101889.44;5034422;28;20476;-58
2022/03/17 03:18:22;;;;;;;38.08;26.15;;;;;;;10.22;85.40;101901.34;5034309;28;20208;-59
2022/03/17 03:20:47;;;;;;;37.42;25.58;;;;;;;10.19;86.00;101912.97;5016835;28;20026;-58
2022/03/17 03:23:12;;;;;;;37.22;25.58;;;;;;;10.19;86.98;101915.72;5034144;28;20445;-59
2022/03/17 03:25:38;;;;;;;33.72;23.38;;;;;;;10.15;87.83;101935.63;5034432;28;20243;-58
2022/03/17 03:28:07;;;;;;;32.30;22.35;;;;;;;10.13;88.68;101937.03;5034939;28;20025;-58
2022/03/17 03:30:33;;;;;;;32.00;20.90;;;;;;;10.06;89.33;101944.78;5034309;28;20033;-58
2022/03/17 03:32:58;;;;;;;27.65;17.88;;;;;;;10.07;89.55;101946.41;5034443;28;20187;-59
2022/03/17 03:38:08;;;;;;;26.88;18.27;;;;;;;9.88;90.95;101965.47;5035812;28;20550;-59
2022/03/17 03:40:33;;;;;;;27.05;17.67;;;;;;;9.74;91.70;101970.69;5035295;28;20033;-59
2022/03/17 03:42:58;;;;;;;25.25;17.85;;;;;;;9.56;93.13;101977.53;5034359;28;20022;-59
2022/03/17 03:45:24;;;;;;;26.33;18.02;;;;;;;9.55;91.69;101978.63;5034787;28;20033;-59
2022/03/17 03:47:49;;;;;;;23.08;16.23;;;;;;;9.45;90.93;101988.56;5034792;28;20469;-60
2022/03/17 03:50:15;;;;;;;25.92;17.50;;;;;;;9.44;90.61;101992.44;5034570;28;20021;-59
2022/03/17 03:52:40;;;;;;;26.58;18.17;;;;;;;9.23;91.59;101996.22;5034795;28;20026;-59
2022/03/17 03:55:06;;;;;;;27.25;18.88;;;;;;;9.35;90.84;102008.69;5034537;28;20368;-59
2022/03/17 03:57:32;;;;;;;26.33;17.58;;;;;;;9.36;89.85;102017.78;5034818;28;20553;-59
2022/03/17 03:59:57;;;;;;;27.42;20.05;;;;;;;9.36;89.80;102026.06;5033652;28;20108;-59
2022/03/17 04:02:22;;;;;;;29.38;19.88;;;;;;;9.30;89.62;102030.78;5032948;28;20099;-60
2022/03/17 04:04:48;;;;;;;31.10;21.67;;;;;;;9.20;89.91;102041.75;5034354;28;20466;-60
2022/03/17 04:07:13;;;;;;;30.98;22.02;;;;;;;9.04;91.28;102046.34;5034014;28;20023;-59
2022/03/17 04:09:41;;;;;;;33.60;23.50;;;;;;;8.97;91.09;102060.38;5034504;28;20021;-59
2022/03/17 04:12:09;;;;;;;31.75;23.35;;;;;;;8.85;91.25;102055.06;5035855;28;20053;-61
2022/03/17 04:14:35;;;;;;;32.95;23.30;;;;;;;8.64;92.94;102065.09;5034621;28;20018;-60
2022/03/17 04:17:00;;;;;;;31.30;22.48;;;;;;;8.70;91.71;102074.22;5034205;28;20026;-59
2022/03/17 04:19:26;;;;;;;29.83;19.25;;;;;;;8.60;92.36;102074.19;5034381;28;20116;-59
2022/03/17 04:21:52;;;;;;;28.60;20.42;;;;;;;8.46;91.83;102069.03;5034719;28;20116;-59
2022/03/17 04:24:19;;;;;;;30.50;19.02;;;;;;;8.62;90.91;102102.31;5034235;28;20054;-59
2022/03/17 04:26:45;;;;;;;31.45;21.33;;;;;;;8.51;91.57;102101.38;5034035;28;20032;-59
2022/03/17 04:29:11;;;;;;;31.52;22.98;;;;;;;8.46;91.59;102113.16;5034166;28;20083;-61
2022/03/17 04:31:38;;;;;;;33.13;22.92;;;;;;;8.46;91.02;102126.13;5033281;28;20484;-59
2022/03/17 04:34:04;;;;;;;30.45;21.48;;;;;;;8.51;91.19;102129.78;5033890;28;20370;-60
2022/03/17 04:36:31;;;;;;;32.10;21.80;;;;;;;8.41;91.48;102140.69;5034188;28;20523;-59
2022/03/17 04:38:57;;;;;;;29.05;20.10;;;;;;;8.41;92.20;102137.91;5034380;28;20025;-61
2022/03/17 04:41:22;;;;;;;31.15;20.75;;;;;;;8.37;92.57;102148.66;5032407;28;20032;-59
2022/03/17 04:43:47;;;;;;;31.85;22.15;;;;;;;8.30;93.45;102158.22;5033612;28;20397;-59
2022/03/17 04:46:13;;;;;;;32.63;22.73;;;;;;;8.28;92.66;102167.59;5033386;28;20457;-59
2022/03/17 04:48:39;;;;;;;33.28;21.20;;;;;;;8.21;93.67;102169.72;5033964;28;20025;-59
2022/03/17 04:51:06;;;;;;;31.80;20.50;;;;;;;8.00;94.92;102159.53;5033939;28;20029;-60
2022/03/17 04:53:32;;;;;;;30.90;20.88;;;;;;;7.88;96.78;102185.28;5033117;28;20037;-59
2022/03/17 04:55:59;;;;;;;29.90;20.30;;;;;;;7.96;95.08;102192.28;5033858;28;20468;-60
2022/03/17 04:58:25;;;;;;;33.60;23.75;;;;;;;7.80;95.10;102194.81;5033449;28;20025;-60
2022/03/17 05:00:52;;;;;;;32.65;22.02;;;;;;;7.79;95.10;102209.66;5034355;28;20109;-59
2022/03/17 05:03:19;;;;;;;33.72;22.67;;;;;;;7.72;95.16;102220.03;5033356;28;20079;-59
2022/03/17 05:05:44;;;;;;;29.15;19.50;;;;;;;7.93;92.41;102217.56;5033483;28;20029;-59
2022/03/17 05:08:09;;;;;;;32.60;20.45;;;;;;;7.79;91.94;102231.72;5032407;28;20029;-58
2022/03/17 05:10:35;;;;;;;31.50;19.48;;;;;;;7.72;91.11;102236.56;5032218;28;20184;-60
2022/03/17 05:13:02;;;;;;;29.00;18.50;;;;;;;7.53;91.99;102247.03;5032400;28;20041;-59
2022/03/17 05:15:28;;;;;;;26.38;17.00;;;;;;;7.58;91.35;102263.63;5032904;28;20033;-59
2022/03/17 05:17:53;;;;;;;27.27;16.10;;;;;;;7.45;90.32;102269.47;5032993;28;20096;-60
2022/03/17 05:20:19;;;;;;;26.23;15.73;;;;;;;7.46;89.43;102288.50;5032686;28;20021;-59
2022/03/17 05:22:44;;;;;;;23.58;12.98;;;;;;;7.42;89.19;102290.06;5032844;28;20022;-59
2022/03/17 05:25:10;;;;;;;24.00;13.20;;;;;;;7.43;88.36;102304.69;5031925;28;20049;-59
2022/03/17 05:27:43;;;;;;;24.90;12.75;;;;;;;7.33;87.45;102310.84;5032415;28;20040;-59
2022/03/17 05:30:10;;;;;;;23.70;13.10;;;;;;;7.21;88.73;102308.16;5032560;28;20485;-58
2022/03/17 05:32:36;;;;;;;25.65;12.73;;;;;;;7.15;88.00;102320.16;5032640;28;20311;-59
2022/03/17 05:35:02;;;;;;;23.42;12.05;;;;;;;7.08;88.37;102323.06;5032828;28;20029;-58
2022/03/17 05:37:28;;;;;;;19.80;11.13;;;;;;;7.20;86.91;102333.19;5033216;28;20079;-59
2022/03/17 05:39:53;;;;;;;21.45;11.27;;;;;;;7.47;84.15;102323.22;5033102;28;20079;-58
2022/03/17 05:42:18;;;;;;;22.92;11.40;;;;;;;7.23;84.57;102330.75;5033186;28;20040;-59
2022/03/17 05:44:44;;;;;;;21.60;11.13;;;;;;;7.25;84.40;102339.63;5032604;28;20129;-58
2022/03/17 05:47:09;;;;;;;21.83;11.40;;;;;;;7.32;83.72;102356.00;5032796;28;20032;-58
2022/03/17 05:49:35;;;;;;;22.85;11.52;;;;;;;7.09;83.72;102359.66;5032664;28;20091;-59
2022/03/17 05:52:00;;;;;;;19.70;11.27;;;;;;;7.15;83.88;102380.72;5032936;28;20030;-60
2022/03/17 05:54:25;;;;;;;23.10;11.57;;;;;;;7.17;83.66;102375.81;5033010;28;20120;-61
2022/03/17 05:56:51;;;;;;;20.20;10.93;;;;;;;7.16;84.05;102391.47;5032547;28;20064;-59
2022/03/17 05:59:16;;;;;;;20.25;10.55;;;;;;;7.20;83.63;102396.50;5032975;28;20037;-59
2022/03/17 06:01:41;;;;;;;20.38;11.35;;;;;;;7.04;83.77;102404.41;5032091;28;20497;-59
2022/03/17 06:04:06;;;;;;;19.85;10.90;;;;;;;7.00;83.87;102409.56;5014781;28;20025;-59
2022/03/17 06:06:32;;;;;;;23.42;11.35;;;;;;;6.99;84.07;102409.81;5032910;28;20029;-60
2022/03/17 06:08:57;;;;;;;23.02;11.27;;;;;;;6.91;84.45;102413.78;5032827;28;20047;-59
2022/03/17 06:11:22;;;;;;;21.40;11.55;;;;;;;6.91;84.85;102426.72;5032803;28;20061;-59
2022/03/17 06:13:48;;;;;;;22.63;11.48;;;;;;;6.88;84.85;102422.53;5032845;28;20459;-58
2022/03/17 06:16:13;;;;;;;21.88;10.75;;;;;;;6.82;85.47;102423.50;5032981;28;20029;-60
2022/03/17 06:18:40;;;;;;;22.40;11.02;;;;;;;6.83;85.37;102445.28;5032887;28;20025;-59
2022/03/17 06:21:05;;;;;;;20.67;10.77;;;;;;;7.02;84.43;102445.94;5032623;28;20029;-59
2022/03/17 06:23:30;;;;;;;22.13;10.48;;;;;;;7.03;83.63;102452.31;5032788;28;20057;-59
2022/03/17 06:25:56;;;;;;;17.02;9.65;;;;;;;6.92;83.16;102456.72;5036029;28;20029;-56
2022/03/17 06:28:21;;;;;;;18.08;10.43;;;;;;;6.88;83.54;102458.31;5036433;28;20025;-58
2022/03/17 06:30:46;;;;;;;19.42;9.65;;;;;;;6.76;84.22;102469.31;5036841;28;20021;-59
2022/03/17 06:33:12;;;;;;;19.50;9.90;;;;;;;6.85;83.92;102478.88;5036549;28;20025;-59
2022/03/17 06:35:37;;;;;;;17.52;9.20;;;;;;;7.01;83.33;102470.97;5036781;28;20025;-59
2022/03/17 06:38:04;;;;;;;17.80;8.98;;;;;;;6.97;82.98;102478.03;5036737;28;20057;-60
2022/03/17 06:40:31;;;;;;;17.27;8.77;;;;;;;6.96;84.30;102484.59;5018054;28;20025;-60
2022/03/17 06:42:57;;;;;;;18.38;9.10;;;;;;;7.14;82.73;102497.38;5036443;28;20025;-59
2022/03/17 06:45:23;;;;;;;19.35;9.25;;;;;;;6.91;83.54;102515.59;5036377;28;20465;-59
2022/03/17 06:47:49;;;;;;;14.80;8.52;;;;;;;6.85;83.37;102517.38;5036662;28;20022;-61
2022/03/17 06:50:16;;;;;;;15.00;7.97;;;;;;;6.89;83.52;102528.78;5036237;28;20022;-58
2022/03/17 06:52:42;;;;;;;17.27;8.23;;;;;;;6.93;83.36;102527.19;5036277;28;20028;-59
2022/03/17 06:55:08;;;;;;;18.13;8.50;;;;;;;6.92;83.56;102517.25;5036116;28;20025;-59
2022/03/17 06:57:33;;;;;;;18.73;9.30;;;;;;;6.98;83.82;102529.22;5036246;28;20043;-59
2022/03/17 06:59:58;;;;;;;18.95;9.00;;;;;;;6.96;83.28;102534.97;5036297;28;20096;-60
2022/03/17 07:02:24;;;;;;;15.30;8.05;;;;;;;7.01;82.88;102542.50;5036063;28;20022;-60
2022/03/17 07:04:49;;;;;;;17.65;8.50;;;;;;;7.01;82.38;102545.25;5035990;28;20041;-60
2022/03/17 07:07:15;;;;;;;18.33;8.50;;;;;;;7.16;81.59;102553.03;5029471;28;20030;-58
2022/03/17 07:09:43;;;;;;;17.52;8.82;;;;;;;7.26;81.09;102556.00;5024508;28;20156;-58
2022/03/17 07:12:12;;;;;;;19.33;9.45;;;;;;;7.05;82.59;102557.44;5015221;28;20132;-59
2022/03/17 07:14:38;;;;;;;20.27;9.00;;;;;;;7.05;82.78;102573.13;5015207;28;20029;-58
2022/03/17 07:17:04;;;;;;;20.70;10.25;;;;;;;7.07;82.61;102573.75;5015503;28;20026;-58
2022/03/17 07:19:30;;;;;;;20.27;9.30;;;;;;;7.01;83.00;102581.84;5015393;28;20374;-59
2022/03/17 07:21:55;;;;;;;18.58;8.73;;;;;;;7.05;83.23;102590.47;4997912;28;20021;-59
2022/03/17 07:24:20;;;;;;;23.63;9.10;;;;;;;7.02;83.28;102605.56;5015628;28;20026;-59
2022/03/17 07:26:46;;;;;;;21.25;8.88;;;;;;;6.94;83.98;102599.59;4997970;28;20045;-58
2022/03/17 07:29:11;;;;;;;19.63;8.85;;;;;;;6.84;83.57;102608.41;5013247;28;20323;-58
2022/03/17 07:31:37;;;;;;;18.20;8.73;;;;;;;6.81;83.81;102615.22;5013636;28;20555;-59
2022/03/17 07:34:02;;;;;;;18.77;8.32;;;;;;;6.84;82.88;102620.28;5012326;28;20037;-59
2022/03/17 07:36:28;;;;;;;17.25;8.35;;;;;;;6.85;83.61;102621.91;5013256;28;20030;-60
2022/03/17 07:38:54;;;;;;;21.90;8.32;;;;;;;6.88;83.39;102623.38;5013658;28;20032;-58
2022/03/17 07:41:20;;;;;;;16.40;8.00;;;;;;;6.85;83.37;102629.34;5013516;28;20458;-59
2022/03/17 07:43:46;;;;;;;19.02;8.50;;;;;;;6.86;82.59;102640.09;5013418;28;20048;-58
2022/03/17 07:46:12;;;;;;;20.10;8.55;;;;;;;6.87;83.29;102638.22;4995567;28;20129;-58
2022/03/17 07:48:38;;;;;;;17.50;8.10;;;;;;;6.97;83.08;102643.97;5013320;28;20104;-58
2022/03/17 07:51:03;;;;;;;17.80;8.07;;;;;;;7.18;82.16;102639.78;4995298;28;20036;-58
2022/03/17 07:53:28;;;;;;;18.90;8.60;;;;;;;7.27;82.24;102645.78;5012843;28;20037;-58
2022/03/17 07:55:55;;;;;;;19.20;8.57;;;;;;;7.30;80.83;102649.97;4994998;28;20034;-58
2022/03/17 07:58:23;;;;;;;18.67;8.45;;;;;;;7.22;81.31;102651.16;5018536;28;20029;-59
2022/03/17 08:00:51;;;;;;;24.42;9.10;;;;;;;7.00;82.41;102670.16;5032243;28;20017;-58
2022/03/17 08:03:16;;;;;;;18.23;8.23;;;;;;;6.88;83.30;102667.41;5030435;28;20112;-58
2022/03/17 08:05:43;;;;;;;19.90;9.45;;;;;;;6.78;84.21;102687.22;5032447;28;20037;-58
2022/03/17 08:08:09;;;;;;;19.88;8.70;;;;;;;6.99;82.97;102682.25;5031150;28;20080;-59
2022/03/17 08:10:34;;;;;;;15.77;8.50;;;;;;;7.07;81.97;102687.41;5032279;28;20053;-58
2022/03/17 08:13:00;;;;;;;16.13;8.07;;;;;;;7.12;81.92;102689.44;5032278;28;20112;-58
2022/03/17 08:15:26;;;;;;;19.73;8.90;;;;;;;7.21;81.50;102693.53;5032595;28;20025;-58
2022/03/17 08:17:51;;;;;;;22.60;9.43;;;;;;;7.15;81.70;102692.56;5032502;28;20018;-57
2022/03/17 08:20:17;;;;;;;21.60;8.60;;;;;;;7.14;80.22;102720.31;5032461;28;20025;-58
2022/03/17 08:22:43;;;;;;;19.30;8.65;;;;;;;7.06;80.87;102717.91;5030671;28;20402;-59
2022/03/17 08:25:08;;;;;;;20.60;9.00;;;;;;;7.07;80.71;102725.09;5032479;28;20036;-58
2022/03/17 08:27:38;;;;;;;18.92;8.20;;;;;;;7.18;80.05;102735.28;5030882;28;20037;-59
2022/03/17 08:30:05;;;;;;;25.05;9.27;;;;;;;7.19;80.14;102734.19;5032782;28;20029;-59
2022/03/17 08:32:30;;;;;;;20.60;8.98;;;;;;;7.23;79.21;102749.19;5031697;28;20119;-59
2022/03/17 08:34:55;;;;;;;21.33;9.10;;;;;;;7.23;79.39;102748.31;5022513;28;20446;-59
2022/03/17 08:37:21;;;;;;;20.40;9.38;;;;;;;7.28;77.33;102742.97;5012077;28;20026;-59
2022/03/17 08:39:48;;;;;;;19.65;8.77;;;;;;;7.28;76.25;102765.81;5012388;28;20041;-59
2022/03/17 08:42:13;;;;;;;18.95;8.25;;;;;;;7.33;73.74;102770.63;5012693;28;20374;-58
2022/03/17 08:44:39;;;;;;;19.10;8.63;;;;;;;7.27;72.64;102764.16;5012448;28;20532;-59
2022/03/17 08:49:48;;;;;;;19.65;8.23;;;;;;;7.35;72.09;102768.47;5011638;28;20208;-58
2022/03/17 08:52:14;;;;;;;17.95;8.45;;;;;;;7.42;71.46;102768.38;5012186;28;20124;-59
2022/03/17 08:54:39;;;;;;;17.63;8.20;;;;;;;7.47;71.17;102774.84;5011875;28;20030;-59
2022/03/17 08:57:05;;;;;;;18.08;7.78;;;;;;;7.58;70.76;102783.34;5012443;28;20080;-59
2022/03/17 08:59:36;;;;;;;21.42;8.23;;;;;;;7.69;70.82;102777.03;5012224;28;20076;-59
2022/03/17 09:02:03;;;;;;;19.30;8.55;;;;;;;7.75;69.92;102777.94;5011781;28;20026;-58
2022/03/17 09:04:29;;;;;;;19.30;8.55;;;;;;;7.85;69.46;102786.47;4992416;28;20029;-59
2022/03/17 09:06:59;;;;;;;17.20;8.10;;;;;;;7.77;69.29;102792.34;5011961;28;20033;-58
2022/03/17 09:09:35;;;;;;;19.75;8.23;;;;;;;7.72;69.40;102806.81;5030776;28;20481;-58
2022/03/17 09:12:06;;;;;;;21.08;8.07;;;;;;;7.73;69.32;102804.94;5031328;28;20084;-58
2022/03/17 09:14:36;;;;;;;15.63;8.45;;;;;;;7.79;68.96;102824.06;5031632;28;20025;-58
2022/03/17 09:17:02;;;;;;;17.73;8.40;;;;;;;7.68;68.22;102830.44;5014680;28;20045;-59
2022/03/17 09:19:27;;;;;;;19.08;8.45;;;;;;;7.67;68.53;102814.13;5032200;28;20489;-59
2022/03/17 09:21:52;;;;;;;18.20;8.85;;;;;;;7.58;69.12;102825.50;5031884;28;20033;-59
2022/03/17 09:24:17;;;;;;;20.02;8.32;;;;;;;7.51;68.81;102812.94;5031657;28;20048;-59
2022/03/17 09:26:43;;;;;;;21.05;8.70;;;;;;;7.70;68.98;102811.72;5031520;28;20116;-56
2022/03/17 09:29:08;;;;;;;22.13;8.93;;;;;;;7.63;68.97;102822.03;5031627;28;20025;-57
2022/03/17 09:31:35;;;;;;;18.77;8.90;;;;;;;7.67;68.15;102844.44;5032112;28;20040;-57
2022/03/17 09:34:00;;;;;;;16.77;8.40;;;;;;;7.64;67.35;102848.50;5031770;28;20056;-57
2022/03/17 09:36:25;;;;;;;19.58;8.60;;;;;;;7.74;67.37;102842.44;5031502;28;20022;-58
2022/03/17 09:41:35;;;;;;;18.00;8.38;;;;;;;7.84;66.26;102861.94;5031821;28;20106;-58
2022/03/17 09:44:02;;;;;;;18.92;8.40;;;;;;;7.75;66.05;102863.38;5030610;28;20033;-58
2022/03/17 09:46:30;;;;;;;16.10;8.20;;;;;;;7.78;66.56;102872.03;5031057;28;20080;-58
2022/03/17 09:48:56;;;;;;;18.45;8.48;;;;;;;7.86;66.85;102856.22;5031548;28;20388;-58
2022/03/17 09:51:24;;;;;;;19.40;8.50;;;;;;;7.88;67.52;102857.63;5031362;28;20026;-58
2022/03/17 09:53:53;;;;;;;17.55;8.55;;;;;;;8.02;67.67;102863.75;5031093;28;20652;-57
2022/03/17 09:56:23;;;;;;;20.20;8.60;;;;;;;8.14;67.02;102869.25;5030941;28;20120;-58
2022/03/17 09:58:53;;;;;;;19.40;8.60;;;;;;;8.22;66.00;102881.88;5029891;28;20476;-58
2022/03/17 10:01:19;;;;;;;18.10;8.57;;;;;;;8.06;65.12;102902.72;5031232;28;20045;-57
2022/03/17 10:03:45;;;;;;;18.75;8.43;;;;;;;8.03;65.42;102900.44;5012040;28;20033;-58
2022/03/17 10:06:11;;;;;;;17.02;8.88;;;;;;;8.05;64.84;102899.13;5030988;28;20033;-58
2022/03/17 10:08:40;;;;;;;18.90;9.10;;;;;;;8.03;65.60;102905.97;5030914;28;20033;-58
2022/03/17 10:11:06;;;;;;;18.38;8.80;;;;;;;8.03;66.39;102906.78;5030780;28;20053;-58
2022/03/17 10:13:41;;;;;;;19.63;8.50;;;;;;;8.04;66.64;102908.47;5031156;28;20029;-58
2022/03/17 10:16:13;;;;;;;19.88;9.10;;;;;;;8.09;66.39;102900.31;5030737;28;20481;-58
2022/03/17 10:18:39;;;;;;;18.50;8.77;;;;;;;8.19;64.99;102923.69;5030922;28;20018;-58
2022/03/17 10:21:11;;;;;;;18.13;8.50;;;;;;;8.23;65.49;102931.25;5030684;28;20491;-58
2022/03/17 10:23:50;;;;;;;16.55;8.40;;;;;;;8.30;65.05;102911.00;5030824;28;20029;-58
2022/03/17 10:26:36;;;;;;;17.08;8.52;;;;;;;8.42;64.22;102933.88;5030501;28;20442;-58
2022/03/17 10:29:08;;;;;;;16.45;8.32;;;;;;;8.40;64.41;102941.59;5030434;28;20025;-58
2022/03/17 10:32:04;;;;;;;15.98;8.40;;;;;;;8.35;64.93;102944.19;5030001;28;20025;-58
2022/03/17 10:34:51;;;;;;;19.35;8.77;;;;;;;8.44;64.56;102962.06;5030711;28;20030;-57
2022/03/17 10:37:18;;;;;;;18.58;8.48;;;;;;;8.44;64.12;102945.53;5030054;28;20169;-57
2022/03/17 10:39:45;;;;;;;15.45;8.20;;;;;;;8.42;64.74;102966.97;5029920;28;20083;-58
2022/03/17 10:42:22;;;;;;;17.85;8.50;;;;;;;8.37;64.35;102966.88;5029863;28;20060;-58
2022/03/17 10:44:58;;;;;;;18.40;8.73;;;;;;;8.19;64.17;102971.41;5029865;28;20057;-58
2022/03/17 10:47:33;;;;;;;17.42;8.38;;;;;;;8.05;64.17;102959.78;5029825;28;20051;-58
2022/03/17 10:50:04;;;;;;;18.55;8.70;;;;;;;8.08;64.39;102961.22;5030092;28;20080;-57
2022/03/17 10:52:43;;;;;;;18.00;8.57;;;;;;;8.36;64.94;102970.72;5012352;28;20063;-59
2022/03/17 10:55:09;;;;;;;17.00;8.70;;;;;;;8.38;63.09;102979.59;5024648;28;20392;-58
2022/03/17 10:57:34;;;;;;;16.33;8.35;;;;;;;8.55;62.88;102985.25;5022471;28;20473;-58
2022/03/17 11:00:00;;;;;;;16.75;8.23;;;;;;;8.55;62.92;102990.75;5012768;28;20038;-57
2022/03/17 11:02:25;;;;;;;17.05;8.15;;;;;;;8.38;63.99;102993.38;5012495;28;20500;-58
2022/03/17 11:04:51;;;;;;;18.50;8.45;;;;;;;8.45;64.25;102991.34;5012063;28;20319;-58
2022/03/17 11:07:18;;;;;;;16.15;8.23;;;;;;;8.60;63.65;102992.84;4992667;28;20536;-58
2022/03/17 11:09:45;;;;;;;15.27;8.57;;;;;;;8.77;63.43;103003.97;5009806;28;20034;-56
2022/03/17 11:12:13;;;;;;;18.15;8.30;;;;;;;8.92;62.29;103006.25;4995589;28;20049;-59
2022/03/17 11:14:46;;;;;;;17.88;8.15;;;;;;;9.02;62.52;103009.22;5015885;28;20049;-58
2022/03/17 11:17:16;;;;;;;16.63;8.25;;;;;;;9.01;61.21;102996.50;5015923;28;20076;-58
2022/03/17 11:19:44;;;;;;;17.98;8.50;;;;;;;9.02;60.65;103029.38;5014347;28;20034;-58
2022/03/17 11:22:15;;;;;;;15.43;8.13;;;;;;;9.02;60.94;103014.75;5015254;28;20045;-58
2022/03/17 11:24:41;;;;;;;17.23;8.07;;;;;;;9.23;60.87;103026.25;5015978;28;20026;-57
2022/03/17 11:27:09;;;;;;;13.48;8.27;;;;;;;9.25;59.65;103007.50;5016050;28;20037;-58
2022/03/17 11:29:40;;;;;;;17.85;8.20;;;;;;;9.41;59.15;103027.97;5015829;28;20033;-59